Time;durP1;ratioP1;P1;durP2;ratioP2;P2;SDS_P1;SDS_P2;PMS_P1;PMS_P2;Temp;Humidity;BMP_temperature;BMP_pressure;BME280_temperature;BME280_humidity;BME280_pressure;Samples;Min_cycle;Max_cycle;Signal;HPM_P1;HPM_P2
2021/03/22 00:03:25;;;;;;;6.80;2.03;;;;;;;;;;10213524;28;20030;-62
2021/03/22 00:08:23;;;;;;;4.93;1.47;;;;;;;;;;10225021;28;20034;-62
2021/03/22 00:13:22;;;;;;;12.82;2.97;;;;;;;;;;10228127;28;20031;-61
2021/03/22 00:18:21;;;;;;;11.40;2.55;;;;;;;;;;10231840;28;20033;-62
2021/03/22 00:23:18;;;;;;;14.00;3.20;;;;;;;;;;10185984;28;20030;-62
2021/03/22 00:28:17;;;;;;;7.53;1.33;;;;;;;;;;10220271;28;20520;-62
2021/03/22 00:33:14;;;;;;;;;;;;;;;;;;10237487;28;20104;-62
2021/03/22 00:38:12;;;;;;;3.15;1.40;;;;;;;;;;10228538;28;19996;-61
2021/03/22 00:43:10;;;;;;;5.63;1.98;;;;;;;;;;10224206;28;20089;-62
2021/03/22 00:48:08;;;;;;;9.87;1.67;;;;;;;;;;10221326;28;20157;-62
2021/03/22 00:53:05;;;;;;;7.33;2.20;;;;;;;;;;10218966;28;20089;-63
2021/03/22 00:58:03;;;;;;;5.20;1.43;;;;;;;;;;10238732;28;20033;-63
2021/03/22 01:03:01;;;;;;;16.77;1.83;;;;;;;;;;10214223;28;20304;-61
2021/03/22 01:07:59;;;;;;;14.73;2.47;;;;;;;;;;10226388;28;20029;-62
2021/03/22 01:12:56;;;;;;;16.87;3.30;;;;;;;;;;10218588;28;20034;-63
2021/03/22 01:17:54;;;;;;;8.00;1.83;;;;;;;;;;10209283;28;20067;-63
2021/03/22 01:22:51;;;;;;;3.77;1.13;;;;;;;;;;10212621;28;20452;-62
2021/03/22 01:27:49;;;;;;;5.63;2.20;;;;;;;;;;10195023;28;20034;-62
2021/03/22 01:32:46;;;;;;;2.53;1.03;;;;;;;;;;10206026;28;20034;-63
2021/03/22 01:37:44;;;;;;;8.30;1.87;;;;;;;;;;10211030;28;20038;-61
2021/03/22 01:43:04;;;;;;;9.40;2.67;;;;;;;;;;10210642;28;20053;-62
2021/03/22 01:48:02;;;;;;;8.63;2.15;;;;;;;;;;10224035;28;20117;-63
2021/03/22 01:53:00;;;;;;;7.23;2.60;;;;;;;;;;10206467;28;20133;-63
2021/03/22 01:57:57;;;;;;;8.63;2.22;;;;;;;;;;10206863;28;20108;-62
2021/03/22 02:02:58;;;;;;;10.90;4.07;;;;;;;;;;10213439;28;20046;-61
2021/03/22 02:08:00;;;;;;;10.02;2.63;;;;;;;;;;10238013;28;20122;-62
2021/03/22 02:12:57;;;;;;;4.82;1.08;;;;;;;;;;10218864;28;20042;-61
2021/03/22 02:18:04;;;;;;;14.60;1.83;;;;;;;;;;10225411;28;20045;-62
2021/03/22 02:23:07;;;;;;;13.32;2.00;;;;;;;;;;10207138;28;20570;-61
2021/03/22 02:28:18;;;;;;;11.93;2.63;;;;;;;;;;10211041;28;20042;-63
2021/03/22 02:33:34;;;;;;;12.57;3.03;;;;;;;;;;10227731;28;20034;-63
2021/03/22 02:38:50;;;;;;;23.88;2.67;;;;;;;;;;10217164;28;20066;-63
2021/03/22 02:44:01;;;;;;;9.55;2.22;;;;;;;;;;10235078;28;20095;-65
2021/03/22 02:49:01;;;;;;;14.98;2.70;;;;;;;;;;10220295;28;20085;-64
2021/03/22 02:54:01;;;;;;;5.40;1.73;;;;;;;;;;10228516;28;20064;-63
2021/03/22 02:59:01;;;;;;;5.85;2.28;;;;;;;;;;10180893;28;20026;-63
2021/03/22 03:03:59;;;;;;;6.55;2.08;;;;;;;;;;10175078;28;20110;-64
2021/03/22 03:08:57;;;;;;;3.57;1.57;;;;;;;;;;10169460;28;20041;-64
2021/03/22 03:13:54;;;;;;;3.23;1.10;;;;;;;;;;10170016;28;20294;-64
2021/03/22 03:18:52;;;;;;;15.47;1.80;;;;;;;;;;10175093;28;20030;-65
2021/03/22 03:23:49;;;;;;;10.77;1.67;;;;;;;;;;10171157;28;20058;-65
2021/03/22 03:28:46;;;;;;;7.90;1.97;;;;;;;;;;10170812;28;20679;-65
2021/03/22 03:33:44;;;;;;;9.33;1.27;;;;;;;;;;10174786;28;20157;-63
2021/03/22 03:38:42;;;;;;;1.83;0.73;;;;;;;;;;10166174;28;20046;-64
2021/03/22 03:43:39;;;;;;;3.00;1.70;;;;;;;;;;10173954;28;20444;-64
2021/03/22 03:48:36;;;;;;;4.57;1.50;;;;;;;;;;10172379;28;20034;-65
2021/03/22 03:53:34;;;;;;;11.20;1.33;;;;;;;;;;10170654;28;21040;-63
2021/03/22 03:58:31;;;;;;;9.93;2.70;;;;;;;;;;10172455;28;20053;-63
2021/03/22 04:03:32;;;;;;;6.03;1.63;;;;;;;;;;10169125;28;20047;-65
2021/03/22 04:08:30;;;;;;;6.55;1.52;;;;;;;;;;10168491;28;20509;-65
2021/03/22 04:13:28;;;;;;;7.85;1.63;;;;;;;;;;10170148;28;20042;-65
2021/03/22 04:18:26;;;;;;;10.15;1.95;;;;;;;;;;10165386;28;20100;-65
2021/03/22 04:23:23;;;;;;;3.37;1.97;;;;;;;;;;10168516;28;20100;-65
2021/03/22 04:28:20;;;;;;;10.03;2.53;;;;;;;;;;10168832;28;20525;-63
2021/03/22 04:33:18;;;;;;;11.43;1.40;;;;;;;;;;10165483;28;20070;-65
2021/03/22 04:38:15;;;;;;;13.87;1.80;;;;;;;;;;10168133;28;20035;-64
2021/03/22 04:43:13;;;;;;;10.47;1.40;;;;;;;;;;10170356;28;20062;-63
2021/03/22 04:48:11;;;;;;;7.07;1.30;;;;;;;;;;10168798;28;20043;-65
2021/03/22 04:53:09;;;;;;;7.75;1.80;;;;;;;;;;10163740;28;20055;-65
2021/03/22 04:58:06;;;;;;;3.13;1.33;;;;;;;;;;10168715;28;20038;-64
2021/03/22 05:03:04;;;;;;;11.30;2.93;;;;;;;;;;10162949;28;20053;-64
2021/03/22 05:08:03;;;;;;;14.15;2.30;;;;;;;;;;10158027;28;20042;-63
2021/03/22 05:13:01;;;;;;;14.07;3.30;;;;;;;;;;10164335;28;20390;-64
2021/03/22 05:17:58;;;;;;;13.40;2.27;;;;;;;;;;10163277;28;20058;-65
2021/03/22 05:22:56;;;;;;;12.00;2.60;;;;;;;;;;10168323;28;20843;-65
2021/03/22 05:27:53;;;;;;;6.83;2.27;;;;;;;;;;10154492;28;20513;-65
2021/03/22 05:32:55;;;;;;;14.73;2.97;;;;;;;;;;10152326;28;20570;-66
2021/03/22 05:37:53;;;;;;;9.27;1.75;;;;;;;;;;10157156;28;20043;-64
2021/03/22 05:43:01;;;;;;;7.13;1.70;;;;;;;;;;10168513;28;20047;-61
2021/03/22 05:48:22;;;;;;;6.97;1.52;;;;;;;;;;10166869;28;20086;-62
2021/03/22 05:53:29;;;;;;;10.65;1.77;;;;;;;;;;10153624;28;20069;-61
2021/03/22 05:58:45;;;;;;;7.63;1.42;;;;;;;;;;10160797;28;21272;-62
2021/03/22 06:03:46;;;;;;;9.88;2.20;;;;;;;;;;10163104;28;20147;-62
2021/03/22 06:08:49;;;;;;;8.43;1.98;;;;;;;;;;10168005;28;20062;-62
2021/03/22 06:13:48;;;;;;;3.60;1.33;;;;;;;;;;10169126;28;20039;-62
2021/03/22 06:18:57;;;;;;;7.85;2.40;;;;;;;;;;10163693;28;21240;-63
2021/03/22 06:23:55;;;;;;;8.52;1.75;;;;;;;;;;10162073;28;20027;-63
2021/03/22 06:28:58;;;;;;;6.95;1.60;;;;;;;;;;10159343;28;20418;-62
2021/03/22 06:34:01;;;;;;;4.05;1.60;;;;;;;;;;10169341;28;20039;-63
2021/03/22 06:39:00;;;;;;;7.63;1.48;;;;;;;;;;10168917;28;20315;-62
2021/03/22 06:43:58;;;;;;;7.53;1.25;;;;;;;;;;10149449;28;20049;-63
2021/03/22 06:48:58;;;;;;;3.95;1.05;;;;;;;;;;10167140;28;20519;-62
2021/03/22 06:53:59;;;;;;;3.00;1.40;;;;;;;;;;10163564;28;20374;-61
2021/03/22 06:59:13;;;;;;;6.80;1.50;;;;;;;;;;10161918;28;20041;-61
2021/03/22 07:04:25;;;;;;;5.03;0.95;;;;;;;;;;10165670;28;20484;-61
2021/03/22 07:09:30;;;;;;;3.75;1.08;;;;;;;;;;10171984;28;20153;-62
2021/03/22 07:14:28;;;;;;;11.07;1.38;;;;;;;;;;10159894;28;20327;-60
2021/03/22 07:19:25;;;;;;;7.90;1.58;;;;;;;;;;10172760;28;20049;-62
2021/03/22 07:24:35;;;;;;;2.20;0.70;;;;;;;;;;10209364;28;20034;-62
2021/03/22 07:29:47;;;;;;;3.25;1.10;;;;;;;;;;10222195;28;20034;-62
2021/03/22 07:35:03;;;;;;;4.25;0.80;;;;;;;;;;10223649;28;20039;-62
2021/03/22 07:40:03;;;;;;;4.53;1.45;;;;;;;;;;10215705;28;20089;-63
2021/03/22 07:45:05;;;;;;;4.10;0.73;;;;;;;;;;10220455;28;20030;-62
2021/03/22 07:50:02;;;;;;;2.08;0.98;;;;;;;;;;10231086;28;20058;-63
2021/03/22 07:55:15;;;;;;;4.83;1.50;;;;;;;;;;10222091;28;20124;-62
2021/03/22 08:00:31;;;;;;;5.32;0.90;;;;;;;;;;10192314;28;20589;-64
2021/03/22 08:06:07;;;;;;;4.80;1.10;;;;;;;;;;10197887;28;21076;-63
2021/03/22 08:11:11;;;;;;;6.43;1.52;;;;;;;;;;10122984;28;20046;-63
2021/03/22 08:16:12;;;;;;;3.45;1.50;;;;;;;;;;10196282;28;20396;-64
2021/03/22 08:21:12;;;;;;;6.85;1.15;;;;;;;;;;10209276;28;20033;-64
2021/03/22 08:26:16;;;;;;;7.55;1.15;;;;;;;;;;10197255;28;20042;-63
2021/03/22 08:31:25;;;;;;;2.30;1.33;;;;;;;;;;10234232;28;20595;-63
2021/03/22 08:36:37;;;;;;;6.78;1.20;;;;;;;;;;10217696;28;20042;-64
2021/03/22 08:41:37;;;;;;;2.63;0.93;;;;;;;;;;10214076;28;20041;-63
2021/03/22 08:46:38;;;;;;;2.95;0.82;;;;;;;;;;10209237;28;20034;-63
2021/03/22 08:51:35;;;;;;;7.95;1.27;;;;;;;;;;10224421;28;20035;-64
2021/03/22 08:56:38;;;;;;;10.80;1.20;;;;;;;;;;10225732;28;20038;-64
2021/03/22 09:01:37;;;;;;;6.70;0.80;;;;;;;;;;10217881;28;20518;-62
2021/03/22 09:06:35;;;;;;;2.58;0.82;;;;;;;;;;10221237;28;20045;-65
2021/03/22 09:11:34;;;;;;;2.37;0.80;;;;;;;;;;10208476;28;20045;-64
2021/03/22 09:16:39;;;;;;;6.38;1.52;;;;;;;;;;10214324;28;20053;-65
2021/03/22 09:21:37;;;;;;;5.50;0.47;;;;;;;;;;10221005;28;20041;-60
2021/03/22 09:26:54;;;;;;;3.13;0.60;;;;;;;;;;10230576;28;20035;-64
2021/03/22 09:31:52;;;;;;;6.90;0.57;;;;;;;;;;10192438;28;20049;-64
2021/03/22 09:36:49;;;;;;;1.17;0.50;;;;;;;;;;10239110;28;20059;-63
2021/03/22 09:41:56;;;;;;;1.40;0.60;;;;;;;;;;10239880;28;20126;-64
2021/03/22 09:47:19;;;;;;;1.13;0.43;;;;;;;;;;10235311;28;20116;-64
2021/03/22 09:52:22;;;;;;;0.65;0.40;;;;;;;;;;10234887;28;20061;-63
2021/03/22 09:57:37;;;;;;;2.20;0.40;;;;;;;;;;10185738;28;20112;-64
2021/03/22 10:02:51;;;;;;;2.03;0.40;;;;;;;;;;10226147;28;20046;-64
2021/03/22 10:07:51;;;;;;;0.30;0.30;;;;;;;;;;10186798;28;20053;-63
2021/03/22 10:13:14;;;;;;;0.70;0.65;;;;;;;;;;10225445;28;20045;-64
2021/03/22 10:18:18;;;;;;;1.20;0.30;;;;;;;;;;10186233;28;20038;-62
2021/03/22 10:23:22;;;;;;;1.48;0.52;;;;;;;;;;10236321;28;20411;-63
2021/03/22 10:28:21;;;;;;;0.10;0.10;;;;;;;;;;10236774;28;20038;-63
2021/03/22 10:33:19;;;;;;;6.43;0.70;;;;;;;;;;10237448;28;20115;-63
2021/03/22 10:38:21;;;;;;;1.23;0.60;;;;;;;;;;10238401;28;20080;-61
2021/03/22 10:43:23;;;;;;;2.72;0.70;;;;;;;;;;10240046;28;20096;-62
2021/03/22 10:48:34;;;;;;;3.63;0.95;;;;;;;;;;10227921;28;20391;-62
2021/03/22 10:53:32;;;;;;;0.95;0.68;;;;;;;;;;10229243;28;20045;-61
2021/03/22 10:58:35;;;;;;;1.87;0.50;;;;;;;;;;10238709;28;20587;-62
2021/03/22 11:03:34;;;;;;;4.07;0.65;;;;;;;;;;10239217;28;20033;-61
2021/03/22 11:08:37;;;;;;;3.20;0.47;;;;;;;;;;10233841;28;20041;-63
2021/03/22 11:13:36;;;;;;;6.43;0.80;;;;;;;;;;10237775;28;20093;-62
2021/03/22 11:18:34;;;;;;;5.03;1.15;;;;;;;;;;10239476;28;20499;-63
2021/03/22 11:23:40;;;;;;;0.87;0.30;;;;;;;;;;10205186;28;20129;-62
2021/03/22 11:28:37;;;;;;;2.25;0.50;;;;;;;;;;10219667;28;20038;-62
2021/03/22 11:33:37;;;;;;;0.73;0.57;;;;;;;;;;10202007;28;20049;-63
2021/03/22 11:38:53;;;;;;;1.25;0.68;;;;;;;;;;10206401;28;20042;-62
2021/03/22 11:44:00;;;;;;;5.00;1.27;;;;;;;;;;10193741;28;20401;-62
2021/03/22 11:48:58;;;;;;;4.40;1.05;;;;;;;;;;10209445;28;20044;-62
2021/03/22 11:53:56;;;;;;;3.80;1.07;;;;;;;;;;10201722;28;20061;-60
2021/03/22 11:59:20;;;;;;;1.95;0.50;;;;;;;;;;10208097;28;20085;-61
2021/03/22 12:04:18;;;;;;;4.00;0.88;;;;;;;;;;10201532;28;20062;-61
2021/03/22 12:09:16;;;;;;;2.65;0.88;;;;;;;;;;10201738;28;20062;-61
2021/03/22 12:14:14;;;;;;;3.03;0.67;;;;;;;;;;10198163;28;20035;-62
2021/03/22 12:19:33;;;;;;;1.55;0.88;;;;;;;;;;10205247;28;20130;-61
2021/03/22 12:24:31;;;;;;;19.23;8.82;;;;;;;;;;10219989;28;20116;-61
2021/03/22 12:29:28;;;;;;;17.57;5.97;;;;;;;;;;10195016;28;20067;-62
2021/03/22 12:34:26;;;;;;;11.00;3.33;;;;;;;;;;10202963;28;20034;-61
2021/03/22 12:39:25;;;;;;;6.90;2.70;;;;;;;;;;10210296;28;20247;-61
2021/03/22 12:44:22;;;;;;;7.45;2.83;;;;;;;;;;10215476;28;20659;-61
2021/03/22 12:49:20;;;;;;;7.07;1.27;;;;;;;;;;10217217;28;20129;-63
2021/03/22 12:54:18;;;;;;;10.70;1.40;;;;;;;;;;10207484;28;20034;-62
2021/03/22 12:59:28;;;;;;;2.40;0.90;;;;;;;;;;10205219;28;20039;-61
2021/03/22 13:04:26;;;;;;;4.50;0.90;;;;;;;;;;10196475;28;20043;-61
2021/03/22 13:09:24;;;;;;;6.53;1.40;;;;;;;;;;10202287;28;20457;-62
2021/03/22 13:14:21;;;;;;;5.50;1.60;;;;;;;;;;10201291;28;20057;-61
2021/03/22 13:19:19;;;;;;;7.13;1.00;;;;;;;;;;10203102;28;20408;-59
2021/03/22 13:24:18;;;;;;;11.33;1.03;;;;;;;;;;10215023;28;20041;-61
2021/03/22 13:29:16;;;;;;;5.30;1.02;;;;;;;;;;10201602;28;20041;-61
2021/03/22 13:34:14;;;;;;;4.85;0.95;;;;;;;;;;10205909;28;20049;-61
2021/03/22 13:39:13;;;;;;;2.80;1.80;;;;;;;;;;10213454;28;20038;-59
2021/03/22 13:44:12;;;;;;;1.13;0.70;;;;;;;;;;10201799;28;20034;-62
2021/03/22 13:49:10;;;;;;;3.40;1.10;;;;;;;;;;10205547;28;20027;-61
2021/03/22 13:54:10;;;;;;;6.87;1.23;;;;;;;;;;10206818;28;20031;-60
2021/03/22 13:59:17;;;;;;;4.80;1.02;;;;;;;;;;10211700;28;20403;-61
2021/03/22 14:04:15;;;;;;;6.70;1.35;;;;;;;;;;10217245;28;20046;-61
2021/03/22 14:09:12;;;;;;;5.13;0.87;;;;;;;;;;10207472;28;20041;-60
2021/03/22 14:14:10;;;;;;;5.33;1.73;;;;;;;;;;10208829;28;20085;-62
2021/03/22 14:19:08;;;;;;;7.05;0.90;;;;;;;;;;10225812;28;20169;-62
2021/03/22 14:24:06;;;;;;;2.03;0.63;;;;;;;;;;10192143;28;20497;-61
2021/03/22 14:29:03;;;;;;;3.28;0.90;;;;;;;;;;10209752;28;20447;-62
2021/03/22 14:34:00;;;;;;;1.43;0.47;;;;;;;;;;10181159;28;20031;-61
2021/03/22 14:39:00;;;;;;;3.53;0.97;;;;;;;;;;10189276;28;20556;-61
2021/03/22 14:43:58;;;;;;;1.88;0.70;;;;;;;;;;10156849;28;20642;-62
2021/03/22 14:48:55;;;;;;;0.30;0.30;;;;;;;;;;10160892;28;20438;-61
2021/03/22 14:53:52;;;;;;;3.37;0.87;;;;;;;;;;10200787;28;20097;-60
2021/03/22 14:58:52;;;;;;;1.10;0.53;;;;;;;;;;10191795;28;20039;-60
2021/03/22 15:03:49;;;;;;;3.38;0.98;;;;;;;;;;10219097;28;20528;-61
2021/03/22 15:08:46;;;;;;;8.93;1.27;;;;;;;;;;10220735;28;20100;-63
2021/03/22 15:13:44;;;;;;;2.37;0.50;;;;;;;;;;10223445;28;20528;-63
2021/03/22 15:18:41;;;;;;;5.93;0.93;;;;;;;;;;10216448;28;20180;-63
2021/03/22 15:23:39;;;;;;;4.13;0.50;;;;;;;;;;10185110;28;20740;-62
2021/03/22 15:28:38;;;;;;;4.32;0.77;;;;;;;;;;10193316;28;20031;-63
2021/03/22 15:33:37;;;;;;;3.43;0.73;;;;;;;;;;10212304;28;20039;-63
2021/03/22 15:38:35;;;;;;;1.50;0.50;;;;;;;;;;10222223;28;20038;-63
2021/03/22 15:43:33;;;;;;;1.58;0.70;;;;;;;;;;10213078;28;20039;-63
2021/03/22 15:48:31;;;;;;;;;;;;;;;;;;10229758;28;20093;-63
2021/03/22 15:53:28;;;;;;;5.57;0.55;;;;;;;;;;10219320;28;19968;-62
2021/03/22 15:58:25;;;;;;;6.40;1.20;;;;;;;;;;10212722;28;20038;-63
2021/03/22 16:03:24;;;;;;;1.93;0.50;;;;;;;;;;10221634;28;20045;-62
2021/03/22 16:08:22;;;;;;;7.88;0.93;;;;;;;;;;10209459;28;20026;-63
2021/03/22 16:13:19;;;;;;;2.50;0.70;;;;;;;;;;10211762;28;20025;-64
2021/03/22 16:18:17;;;;;;;3.20;0.60;;;;;;;;;;10222166;28;20026;-61
2021/03/22 16:23:15;;;;;;;3.83;0.73;;;;;;;;;;10212682;28;20039;-61
2021/03/22 16:28:13;;;;;;;1.95;0.45;;;;;;;;;;10229167;28;20030;-60
2021/03/22 16:33:11;;;;;;;2.80;1.17;;;;;;;;;;10210842;28;20168;-61
2021/03/22 16:38:10;;;;;;;1.95;0.82;;;;;;;;;;10184590;28;21015;-62
2021/03/22 16:43:09;;;;;;;1.25;0.40;;;;;;;;;;10217332;28;20034;-61
2021/03/22 16:48:07;;;;;;;4.53;0.68;;;;;;;;;;10194297;28;20046;-60
2021/03/22 16:53:05;;;;;;;2.17;0.52;;;;;;;;;;10215522;28;20046;-60
2021/03/22 16:58:02;;;;;;;1.03;0.77;;;;;;;;;;10213410;28;20042;-64
2021/03/22 17:03:01;;;;;;;3.03;1.07;;;;;;;;;;10212181;23;20062;-65
2021/03/22 17:08:00;;;;;;;7.95;0.85;;;;;;;;;;10210702;28;21055;-64
2021/03/22 17:12:58;;;;;;;0.52;0.47;;;;;;;;;;10188326;28;20096;-65
2021/03/22 17:17:56;;;;;;;3.27;0.90;;;;;;;;;;10249863;23;20050;-64
2021/03/22 17:22:53;;;;;;;5.20;0.32;;;;;;;;;;10266624;28;20041;-63
2021/03/22 17:27:50;;;;;;;1.80;0.77;;;;;;;;;;10233627;28;20034;-62
2021/03/22 17:32:48;;;;;;;2.47;0.40;;;;;;;;;;10185135;23;20090;-64
2021/03/22 17:37:48;;;;;;;0.67;0.30;;;;;;;;;;10196858;28;20042;-65
2021/03/22 17:42:46;;;;;;;3.08;0.65;;;;;;;;;;10196165;28;20097;-64
2021/03/22 17:47:44;;;;;;;12.13;0.83;;;;;;;;;;10173042;28;20039;-60
2021/03/22 17:52:41;;;;;;;4.03;0.57;;;;;;;;;;10174007;28;20085;-59
2021/03/22 17:57:39;;;;;;;2.13;1.37;;;;;;;;;;10154116;28;20630;-59
2021/03/22 18:02:37;;;;;;;0.90;0.67;;;;;;;;;;10171528;28;20042;-64
2021/03/22 18:07:34;;;;;;;18.95;9.38;;;;;;;;;;10166893;28;20065;-57
2021/03/22 18:12:32;;;;;;;10.63;4.47;;;;;;;;;;10171705;28;20050;-58
2021/03/22 18:17:29;;;;;;;8.67;3.47;;;;;;;;;;10169710;28;20469;-62
2021/03/22 18:22:27;;;;;;;6.30;2.83;;;;;;;;;;10147719;28;20536;-57
2021/03/22 18:27:24;;;;;;;1.80;1.33;;;;;;;;;;10159474;28;20030;-57
2021/03/22 18:32:21;;;;;;;4.10;2.43;;;;;;;;;;10147075;28;20047;-60
2021/03/22 18:37:19;;;;;;;6.50;1.53;;;;;;;;;;10177101;28;20129;-59
2021/03/22 18:42:16;;;;;;;3.03;1.23;;;;;;;;;;10169451;28;20138;-63
2021/03/22 18:47:14;;;;;;;3.10;1.47;;;;;;;;;;10156286;28;20030;-60
2021/03/22 18:52:11;;;;;;;3.07;1.30;;;;;;;;;;10158657;28;20035;-61
2021/03/22 18:57:09;;;;;;;3.30;1.10;;;;;;;;;;10171751;28;20047;-60
2021/03/22 19:02:07;;;;;;;0.90;0.40;;;;;;;;;;10166309;28;20043;-60
2021/03/22 19:07:06;;;;;;;0.50;0.50;;;;;;;;;;10170558;28;20039;-61
2021/03/22 19:12:04;;;;;;;3.97;0.70;;;;;;;;;;10166589;28;20039;-57
2021/03/22 19:17:02;;;;;;;3.73;0.87;;;;;;;;;;10161499;28;20042;-54
2021/03/22 19:21:59;;;;;;;4.80;0.50;;;;;;;;;;10153733;28;20043;-58
2021/03/22 19:26:56;;;;;;;1.30;0.73;;;;;;;;;;10165612;28;20400;-58
2021/03/22 19:31:54;;;;;;;1.63;0.83;;;;;;;;;;10156792;28;20540;-61
2021/03/22 19:36:51;;;;;;;1.40;0.83;;;;;;;;;;10153712;28;20694;-62
2021/03/22 19:41:49;;;;;;;3.27;0.50;;;;;;;;;;10154440;28;20039;-59
2021/03/22 19:46:46;;;;;;;3.40;0.80;;;;;;;;;;10155006;28;20122;-61
2021/03/22 19:51:44;;;;;;;1.73;0.60;;;;;;;;;;10146372;28;20448;-60
2021/03/22 19:56:42;;;;;;;2.67;1.17;;;;;;;;;;10152788;28;20121;-61
2021/03/22 20:01:39;;;;;;;3.13;1.10;;;;;;;;;;10143715;28;20130;-61
2021/03/22 20:06:36;;;;;;;6.10;0.40;;;;;;;;;;10158951;28;20031;-61
2021/03/22 20:11:34;;;;;;;2.70;0.50;;;;;;;;;;10171144;28;20046;-62
2021/03/22 20:16:31;;;;;;;0.93;0.60;;;;;;;;;;10152277;28;20027;-62
2021/03/22 20:21:31;;;;;;;3.93;0.53;;;;;;;;;;10163111;28;20038;-58
2021/03/22 20:26:31;;;;;;;4.25;1.38;;;;;;;;;;10175332;28;20037;-61
2021/03/22 20:31:29;;;;;;;3.53;1.23;;;;;;;;;;10140802;28;20038;-63
2021/03/22 20:36:27;;;;;;;3.42;0.82;;;;;;;;;;10158299;28;20141;-62
2021/03/22 20:41:29;;;;;;;1.85;0.70;;;;;;;;;;10156897;28;20122;-60
2021/03/22 20:46:26;;;;;;;1.30;0.98;;;;;;;;;;10164482;28;20039;-61
2021/03/22 20:51:24;;;;;;;1.93;0.80;;;;;;;;;;10163588;28;20043;-64
2021/03/22 20:56:21;;;;;;;4.33;1.20;;;;;;;;;;10142441;28;20657;-63
2021/03/22 21:01:18;;;;;;;3.60;0.90;;;;;;;;;;10158381;28;20062;-61
2021/03/22 21:06:16;;;;;;;3.13;0.87;;;;;;;;;;10157148;28;20042;-62
2021/03/22 21:11:14;;;;;;;3.63;0.80;;;;;;;;;;10161683;28;20192;-61
2021/03/22 21:16:11;;;;;;;1.10;0.63;;;;;;;;;;10169888;28;20049;-60
2021/03/22 21:21:09;;;;;;;1.10;0.53;;;;;;;;;;10176010;28;20150;-62
2021/03/22 21:26:08;;;;;;;2.63;0.40;;;;;;;;;;10173885;28;20716;-62
2021/03/22 21:31:07;;;;;;;4.13;0.65;;;;;;;;;;10175994;28;20027;-61
2021/03/22 21:36:04;;;;;;;;;;;;;;;;;;10170448;28;20046;-59
2021/03/22 21:41:03;;;;;;;0.20;0.20;;;;;;;;;;10175774;28;19922;-59
2021/03/22 21:46:01;;;;;;;3.08;0.57;;;;;;;;;;10185454;28;20039;-61
2021/03/22 21:50:58;;;;;;;0.53;0.50;;;;;;;;;;10168408;28;20034;-63
2021/03/22 21:55:57;;;;;;;1.13;0.23;;;;;;;;;;10162022;28;20031;-59
2021/03/22 22:00:54;;;;;;;0.70;0.55;;;;;;;;;;10170516;28;20534;-60
2021/03/22 22:05:52;;;;;;;2.07;0.60;;;;;;;;;;10149508;28;20129;-62
2021/03/22 22:10:49;;;;;;;1.30;0.50;;;;;;;;;;10173598;28;20042;-60
2021/03/22 22:15:47;;;;;;;1.40;0.40;;;;;;;;;;10164873;28;20693;-60
2021/03/22 22:20:45;;;;;;;0.30;0.30;;;;;;;;;;10158808;28;20031;-60
2021/03/22 22:25:42;;;;;;;1.50;0.40;;;;;;;;;;10163847;28;20039;-59
2021/03/22 22:30:40;;;;;;;1.30;0.60;;;;;;;;;;10186524;28;20285;-58
2021/03/22 22:35:39;;;;;;;0.30;0.30;;;;;;;;;;10154349;28;20042;-59
2021/03/22 22:40:37;;;;;;;0.55;0.55;;;;;;;;;;10160829;28;20509;-59
2021/03/22 22:45:34;;;;;;;;;;;;;;;;;;10174271;28;20882;-58
2021/03/22 22:50:32;;;;;;;0.30;0.30;;;;;;;;;;10165969;28;19927;-62
2021/03/22 22:55:30;;;;;;;0.77;0.20;;;;;;;;;;10159861;28;20031;-60
2021/03/22 23:00:29;;;;;;;0.10;0.10;;;;;;;;;;10157118;28;20114;-60
2021/03/22 23:05:29;;;;;;;0.98;0.35;;;;;;;;;;10157428;28;20047;-60
2021/03/22 23:10:26;;;;;;;3.03;0.45;;;;;;;;;;10160469;28;20042;-56
2021/03/22 23:15:26;;;;;;;0.90;0.40;;;;;;;;;;10169372;28;20529;-60
2021/03/22 23:20:24;;;;;;;0.52;0.25;;;;;;;;;;10160612;28;20031;-59
2021/03/22 23:25:23;;;;;;;1.80;0.40;;;;;;;;;;10163986;28;20556;-61
2021/03/22 23:30:27;;;;;;;1.00;0.20;;;;;;;;;;10164203;28;20062;-64
2021/03/22 23:35:25;;;;;;;3.17;0.70;;;;;;;;;;10154133;28;20051;-63
2021/03/22 23:40:22;;;;;;;2.13;0.45;;;;;;;;;;10177008;28;20039;-65
2021/03/22 23:45:24;;;;;;;3.40;0.30;;;;;;;;;;10175107;28;20155;-65
2021/03/22 23:50:24;;;;;;;0.85;0.65;;;;;;;;;;10171712;28;20039;-62
2021/03/22 23:55:22;;;;;;;0.47;0.20;;;;;;;;;;10156918;28;20049;-58
